Time;durP1;ratioP1;P1;durP2;ratioP2;P2;SDS_P1;SDS_P2;PMS_P1;PMS_P2;Temp;Humidity;BMP_temperature;BMP_pressure;BME280_temperature;BME280_humidity;BME280_pressure;Samples;Min_cycle;Max_cycle;Signal;HPM_P1;HPM_P2
2021/04/16 00:00:23;;;;;;;4.10;2.15;;;;;;;1.96;69.95;103351.03;5040924;28;20064;-73
2021/04/16 00:02:50;;;;;;;4.97;2.33;;;;;;;1.98;69.97;103349.34;5042985;28;20061;-72
2021/04/16 00:05:18;;;;;;;4.05;2.20;;;;;;;1.96;70.69;103345.75;5037892;28;20659;-72
2021/04/16 00:07:45;;;;;;;5.13;2.20;;;;;;;1.95;69.61;103348.31;5041850;28;20088;-73
2021/04/16 00:10:17;;;;;;;5.88;2.65;;;;;;;1.90;70.09;103344.59;5040927;28;20069;-72
2021/04/16 00:12:44;;;;;;;3.97;2.38;;;;;;;1.87;70.22;103342.72;5040040;28;20060;-73
2021/04/16 00:15:13;;;;;;;6.32;2.40;;;;;;;1.83;70.70;103332.88;5040284;28;20057;-73
2021/04/16 00:17:40;;;;;;;4.03;2.13;;;;;;;1.82;69.87;103332.00;5039299;28;20270;-72
2021/04/16 00:20:10;;;;;;;4.82;2.47;;;;;;;1.79;69.99;103326.59;5037808;28;20568;-72
2021/04/16 00:22:37;;;;;;;4.55;2.67;;;;;;;1.79;70.20;103336.22;5037767;28;20053;-74
2021/04/16 00:25:08;;;;;;;4.63;2.78;;;;;;;1.76;70.04;103329.09;5040381;28;20477;-73
2021/04/16 00:27:35;;;;;;;4.80;2.45;;;;;;;1.74;69.59;103327.19;5039607;28;20152;-72
2021/04/16 00:30:04;;;;;;;3.00;2.35;;;;;;;1.73;70.08;103323.69;5042072;28;20474;-71
2021/04/16 00:32:31;;;;;;;4.10;2.20;;;;;;;1.73;69.94;103322.78;5034512;28;20121;-72
2021/04/16 00:34:58;;;;;;;3.03;2.03;;;;;;;1.71;69.90;103317.44;5043736;28;20166;-73
2021/04/16 00:37:24;;;;;;;3.90;2.33;;;;;;;1.70;70.31;103314.75;5038246;28;20057;-72
2021/04/16 00:39:51;;;;;;;4.07;2.40;;;;;;;1.69;70.23;103313.84;5039793;28;20057;-72
2021/04/16 00:42:19;;;;;;;4.60;2.38;;;;;;;1.66;70.73;103311.09;5037762;28;20064;-72
2021/04/16 00:44:46;;;;;;;4.82;2.42;;;;;;;1.59;70.72;103309.03;5041449;28;20056;-73
2021/04/16 00:47:15;;;;;;;5.10;2.55;;;;;;;1.52;71.31;103305.22;5036650;28;20075;-72
2021/04/16 00:49:46;;;;;;;4.30;2.38;;;;;;;1.51;71.27;103307.78;5040839;28;20083;-72
2021/04/16 00:52:17;;;;;;;3.80;2.28;;;;;;;1.47;71.51;103310.25;5040621;28;20699;-72
2021/04/16 00:54:45;;;;;;;3.05;1.98;;;;;;;1.42;71.40;103308.25;5042639;28;20176;-72
2021/04/16 00:57:14;;;;;;;4.90;2.30;;;;;;;1.36;71.29;103300.09;5040291;28;20148;-73
2021/04/16 00:59:46;;;;;;;5.78;2.05;;;;;;;1.35;71.42;103298.31;5039123;28;20065;-72
2021/04/16 01:02:13;;;;;;;2.92;2.00;;;;;;;1.23;71.31;103296.91;5039340;28;20094;-72
2021/04/16 01:04:40;;;;;;;2.88;2.03;;;;;;;1.15;71.51;103300.00;5038061;28;20351;-72
2021/04/16 01:07:09;;;;;;;5.22;2.20;;;;;;;1.06;72.29;103304.00;5039970;28;20058;-72
2021/04/16 01:09:37;;;;;;;5.38;2.28;;;;;;;0.99;71.89;103295.75;5039273;28;20168;-73
2021/04/16 01:12:06;;;;;;;3.42;2.10;;;;;;;0.98;72.86;103307.13;5041639;28;20057;-72
2021/04/16 01:14:34;;;;;;;4.80;2.60;;;;;;;0.97;73.47;103303.59;5036975;28;20065;-72
2021/04/16 01:17:02;;;;;;;5.35;2.65;;;;;;;0.98;73.88;103305.38;5042507;28;20060;-73
2021/04/16 01:19:38;;;;;;;4.60;2.40;;;;;;;0.96;73.44;103309.66;5036790;28;20065;-73
2021/04/16 01:22:10;;;;;;;4.93;2.42;;;;;;;0.96;73.75;103308.78;5041678;28;20358;-72
2021/04/16 01:24:38;;;;;;;5.38;2.80;;;;;;;0.89;73.74;103311.09;5038473;28;20092;-72
2021/04/16 01:27:11;;;;;;;5.38;2.33;;;;;;;0.85;73.60;103305.63;5040959;28;20056;-73
2021/04/16 01:29:41;;;;;;;6.47;3.10;;;;;;;0.83;74.06;103307.28;5038024;28;20065;-72
2021/04/16 01:32:10;;;;;;;5.28;3.08;;;;;;;0.82;74.51;103306.41;5039021;28;20057;-73
2021/04/16 01:34:38;;;;;;;5.43;3.20;;;;;;;0.80;74.44;103310.69;5038880;28;20091;-72
2021/04/16 01:37:05;;;;;;;5.70;2.95;;;;;;;0.75;74.10;103306.94;5040031;28;20124;-73
2021/04/16 01:39:32;;;;;;;6.28;3.38;;;;;;;0.72;75.15;103312.03;5037011;28;20086;-73
2021/04/16 01:42:00;;;;;;;6.13;2.88;;;;;;;0.69;75.04;103314.50;5039008;28;20057;-72
2021/04/16 01:44:29;;;;;;;5.75;3.10;;;;;;;0.69;75.46;103314.50;5040337;28;20076;-72
2021/04/16 01:46:59;;;;;;;6.72;3.25;;;;;;;0.67;75.35;103313.56;5038437;28;20452;-72
2021/04/16 01:49:29;;;;;;;5.78;2.88;;;;;;;0.68;75.66;103308.38;5039013;28;20106;-73
2021/04/16 01:51:57;;;;;;;5.32;3.03;;;;;;;0.70;75.81;103311.97;5038010;28;20156;-72
2021/04/16 01:54:26;;;;;;;7.15;3.92;;;;;;;0.71;75.83;103312.84;5039505;28;20314;-73
2021/04/16 01:56:55;;;;;;;6.57;3.60;;;;;;;0.73;75.97;103306.88;5035932;28;20065;-72
2021/04/16 01:59:26;;;;;;;5.95;3.20;;;;;;;0.73;76.20;103314.75;5040589;28;20469;-72
2021/04/16 02:01:53;;;;;;;8.45;4.00;;;;;;;0.78;76.44;103306.16;5037587;28;20156;-72
2021/04/16 02:04:21;;;;;;;6.32;3.55;;;;;;;0.76;76.09;103315.72;5037899;28;20060;-73
2021/04/16 02:06:50;;;;;;;7.57;4.00;;;;;;;0.76;76.29;103306.09;5034236;28;20517;-72
2021/04/16 02:09:20;;;;;;;6.53;3.45;;;;;;;0.77;76.14;103307.91;5038422;28;20057;-73
2021/04/16 02:11:47;;;;;;;7.95;3.35;;;;;;;0.73;76.21;103298.97;5037769;28;20057;-73
2021/04/16 02:14:16;;;;;;;9.60;3.60;;;;;;;0.77;76.54;103307.91;5036230;28;20063;-72
2021/04/16 02:16:46;;;;;;;6.45;3.20;;;;;;;0.76;76.23;103306.09;5037477;28;20064;-72
2021/04/16 02:19:13;;;;;;;6.50;3.30;;;;;;;0.72;76.78;103305.03;5037480;28;20065;-72
2021/04/16 02:21:40;;;;;;;6.03;3.70;;;;;;;0.68;75.52;103299.56;5037110;28;20367;-73
2021/04/16 02:24:09;;;;;;;7.97;3.97;;;;;;;0.70;76.51;103297.94;5040295;28;20060;-74
2021/04/16 02:26:36;;;;;;;7.47;3.83;;;;;;;0.71;77.02;103307.59;5037571;28;20432;-73
2021/04/16 02:29:04;;;;;;;7.45;3.30;;;;;;;0.69;76.53;103304.00;5042439;28;20067;-72
2021/04/16 02:31:31;;;;;;;8.60;3.67;;;;;;;0.71;76.87;103297.97;5041043;28;20175;-72
2021/04/16 02:34:00;;;;;;;7.32;3.40;;;;;;;0.65;76.71;103291.56;5039895;28;20148;-73
2021/04/16 02:36:27;;;;;;;8.32;3.78;;;;;;;0.63;76.53;103298.44;5040178;28;20059;-73
2021/04/16 02:38:55;;;;;;;7.20;3.42;;;;;;;0.60;76.62;103288.69;5036908;28;20057;-73
2021/04/16 02:41:22;;;;;;;8.07;4.07;;;;;;;0.57;76.47;103291.16;5042304;28;20069;-73
2021/04/16 02:43:50;;;;;;;7.93;4.32;;;;;;;0.53;76.90;103295.38;5041066;28;20072;-71
2021/04/16 02:46:18;;;;;;;6.15;3.30;;;;;;;0.49;76.69;103297.78;5043280;28;20061;-71
2021/04/16 02:48:45;;;;;;;7.32;3.55;;;;;;;0.50;77.45;103295.22;5039820;28;20057;-71
2021/04/16 02:51:12;;;;;;;7.55;3.63;;;;;;;0.44;76.76;103294.03;5043355;28;20082;-72
2021/04/16 02:53:39;;;;;;;7.85;4.32;;;;;;;0.42;77.63;103290.44;5037913;28;20058;-72
2021/04/16 02:56:06;;;;;;;5.95;3.33;;;;;;;0.39;77.46;103293.78;5042494;28;20139;-71
2021/04/16 02:58:33;;;;;;;7.07;3.92;;;;;;;0.38;78.06;103292.00;5039946;28;20064;-71
2021/04/16 03:01:00;;;;;;;6.63;3.75;;;;;;;0.38;77.98;103289.38;5044197;28;20057;-72
2021/04/16 03:03:27;;;;;;;6.72;3.90;;;;;;;0.39;78.34;103291.16;5040613;28;20065;-72
2021/04/16 03:05:55;;;;;;;7.30;3.47;;;;;;;0.40;78.29;103294.72;5039723;28;20074;-72
2021/04/16 03:08:22;;;;;;;7.25;3.70;;;;;;;0.36;78.24;103291.03;5045488;28;20075;-71
2021/04/16 03:10:50;;;;;;;9.05;3.53;;;;;;;0.34;78.78;103296.22;5039820;28;20543;-71
2021/04/16 03:13:17;;;;;;;5.97;3.72;;;;;;;0.33;78.76;103294.41;5040428;28;20095;-72
2021/04/16 03:15:45;;;;;;;7.85;3.80;;;;;;;0.34;79.22;103298.84;5039604;28;20057;-71
2021/04/16 03:18:12;;;;;;;6.50;3.45;;;;;;;0.33;78.47;103298.75;5040457;28;20550;-71
2021/04/16 03:20:39;;;;;;;6.50;4.03;;;;;;;0.28;78.59;103288.03;5045578;28;20478;-71
2021/04/16 03:23:06;;;;;;;7.60;3.30;;;;;;;0.29;78.88;103292.47;5042771;28;20067;-71
2021/04/16 03:25:34;;;;;;;6.32;3.60;;;;;;;0.32;79.00;103294.31;5041373;28;20111;-71
2021/04/16 03:28:00;;;;;;;6.75;3.08;;;;;;;0.37;79.72;103290.19;5044398;28;20309;-72
2021/04/16 03:30:28;;;;;;;6.72;3.65;;;;;;;0.37;79.13;103295.44;5039229;28;20057;-71
2021/04/16 03:32:54;;;;;;;7.10;4.10;;;;;;;0.36;79.20;103288.41;5044187;28;20076;-71
2021/04/16 03:35:22;;;;;;;6.95;4.10;;;;;;;0.38;79.57;103296.38;5036548;28;20218;-71
2021/04/16 03:37:50;;;;;;;8.57;4.93;;;;;;;0.38;80.11;103288.50;5046618;28;20466;-71
2021/04/16 03:40:22;;;;;;;7.85;3.80;;;;;;;0.40;79.95;103285.09;5041117;28;20052;-73
2021/04/16 03:42:49;;;;;;;6.38;3.92;;;;;;;0.38;79.41;103283.25;5037886;28;20182;-73
2021/04/16 03:45:17;;;;;;;5.93;3.40;;;;;;;0.41;79.96;103283.34;5041287;28;20071;-74
2021/04/16 03:47:45;;;;;;;7.70;3.80;;;;;;;0.46;79.89;103281.84;5039636;28;20064;-72
2021/04/16 03:50:14;;;;;;;6.35;3.70;;;;;;;0.47;79.43;103281.94;5040015;28;20057;-71
2021/04/16 03:52:41;;;;;;;8.30;4.20;;;;;;;0.39;79.48;103277.13;5036754;28;20616;-71
2021/04/16 03:55:10;;;;;;;7.88;3.15;;;;;;;0.39;79.10;103283.28;5046022;28;20130;-71
2021/04/16 03:57:37;;;;;;;6.40;3.80;;;;;;;0.35;78.92;103287.50;5039143;28;20115;-71
2021/04/16 04:00:08;;;;;;;7.20;3.72;;;;;;;0.38;78.96;103291.13;5042064;28;20068;-71
2021/04/16 04:02:35;;;;;;;7.47;3.70;;;;;;;0.38;79.49;103288.50;5039538;28;20136;-72
2021/04/16 04:05:02;;;;;;;10.38;4.80;;;;;;;0.40;79.31;103286.84;5041301;28;20061;-71
2021/04/16 04:07:30;;;;;;;7.45;3.92;;;;;;;0.36;79.21;103285.78;5040409;28;20215;-74
2021/04/16 04:09:56;;;;;;;7.22;3.53;;;;;;;0.39;79.27;103287.66;5038638;28;20750;-75
2021/04/16 04:12:23;;;;;;;6.70;3.85;;;;;;;0.36;79.13;103291.94;5041100;28;20113;-73
2021/04/16 04:14:50;;;;;;;6.60;3.47;;;;;;;0.41;79.02;103288.63;5043190;28;20076;-74
2021/04/16 04:17:25;;;;;;;6.43;3.53;;;;;;;0.38;79.15;103296.38;5043715;28;20045;-73
2021/04/16 04:19:52;;;;;;;5.93;3.15;;;;;;;0.34;79.13;103292.66;5042894;28;20065;-72
2021/04/16 04:22:19;;;;;;;6.03;3.63;;;;;;;0.35;79.14;103300.63;5043962;28;20064;-72
2021/04/16 04:24:46;;;;;;;7.25;3.65;;;;;;;0.44;79.07;103294.91;5040368;28;20064;-71
2021/04/16 04:27:14;;;;;;;6.00;3.53;;;;;;;0.44;78.87;103292.28;5041685;28;20072;-71
2021/04/16 04:29:44;;;;;;;6.38;3.97;;;;;;;0.44;79.01;103304.53;5040081;28;20067;-71
2021/04/16 04:32:11;;;;;;;7.20;3.67;;;;;;;0.44;79.10;103299.28;5014362;28;827296;-71
2021/04/16 04:34:39;;;;;;;6.45;3.30;;;;;;;0.43;78.84;103292.25;5039515;28;20517;-72
2021/04/16 04:37:08;;;;;;;6.95;3.50;;;;;;;0.45;78.84;103299.34;5043779;28;20068;-72
2021/04/16 04:39:40;;;;;;;7.57;3.90;;;;;;;0.44;79.00;103294.91;5037585;28;20812;-72
2021/04/16 04:42:08;;;;;;;7.53;3.53;;;;;;;0.45;79.01;103291.47;5053955;28;20404;-71
2021/04/16 04:44:35;;;;;;;5.93;2.97;;;;;;;0.47;79.06;103294.19;5037865;28;20067;-72
2021/04/16 04:47:03;;;;;;;6.13;3.30;;;;;;;0.42;78.68;103299.19;5038633;28;20167;-72
2021/04/16 04:49:30;;;;;;;8.48;4.38;;;;;;;0.37;78.81;103287.56;5040779;28;20069;-71
2021/04/16 04:52:19;;;;;;;6.47;3.40;;;;;;;0.38;79.05;103294.63;5038257;28;20452;-72
2021/04/16 04:54:47;;;;;;;10.77;4.63;;;;;;;0.49;78.83;103292.53;5038694;28;20064;-73
2021/04/16 04:57:15;;;;;;;5.72;3.08;;;;;;;0.42;79.25;103288.69;5039292;28;20086;-73
2021/04/16 04:59:44;;;;;;;5.45;3.22;;;;;;;0.37;79.04;103292.81;5038178;28;20491;-72
2021/04/16 05:02:11;;;;;;;8.38;3.78;;;;;;;0.39;79.07;103295.53;5040017;28;20057;-72
2021/04/16 05:04:38;;;;;;;8.15;3.60;;;;;;;0.45;79.34;103295.84;5036406;28;20063;-71
2021/04/16 05:07:05;;;;;;;6.63;4.07;;;;;;;0.50;79.89;103296.97;5033780;28;20459;-71
2021/04/16 05:09:33;;;;;;;6.43;3.47;;;;;;;0.57;79.70;103295.53;5039272;28;20064;-71
2021/04/16 05:12:00;;;;;;;6.28;3.08;;;;;;;0.60;79.54;103293.06;5041171;28;20427;-71
2021/04/16 05:14:28;;;;;;;6.75;3.60;;;;;;;0.72;79.52;103284.03;5040759;28;20053;-71
2021/04/16 05:16:56;;;;;;;12.68;4.13;;;;;;;0.80;79.28;103288.72;5037005;28;20057;-71
2021/04/16 05:19:23;;;;;;;6.85;3.42;;;;;;;0.90;79.82;103290.97;5044438;28;20516;-70
2021/04/16 05:21:53;;;;;;;6.22;3.30;;;;;;;0.99;79.18;103288.78;5038898;28;20079;-71
2021/04/16 05:24:20;;;;;;;6.70;3.00;;;;;;;1.14;78.87;103285.94;5045982;28;20060;-71
2021/04/16 05:26:47;;;;;;;6.00;3.65;;;;;;;1.30;78.59;103295.44;5035677;28;20057;-71
2021/04/16 05:29:14;;;;;;;5.60;3.05;;;;;;;1.40;78.46;103289.78;5040450;28;20067;-71
2021/04/16 05:31:41;;;;;;;7.65;3.42;;;;;;;1.55;77.73;103293.91;5037986;28;20057;-71
2021/04/16 05:34:08;;;;;;;6.63;3.13;;;;;;;1.69;77.43;103295.44;5040478;28;20111;-71
2021/04/16 05:36:35;;;;;;;6.88;4.22;;;;;;;1.90;77.25;103286.66;5039643;28;20099;-71
2021/04/16 05:39:03;;;;;;;7.32;3.28;;;;;;;2.08;76.57;103282.19;5041388;28;20524;-71
2021/04/16 05:41:30;;;;;;;5.65;2.90;;;;;;;2.28;76.06;103287.38;5041131;28;20174;-72
2021/04/16 05:43:58;;;;;;;5.60;3.15;;;;;;;2.49;75.81;103287.38;5036468;28;20437;-72
2021/04/16 05:46:25;;;;;;;7.68;3.53;;;;;;;2.74;74.75;103278.66;5039462;28;20136;-72
2021/04/16 05:48:52;;;;;;;6.88;3.00;;;;;;;2.91;74.18;103282.88;5037292;28;20455;-71
2021/04/16 05:51:18;;;;;;;7.18;3.33;;;;;;;3.12;73.83;103280.16;5038543;28;20057;-72
2021/04/16 05:53:45;;;;;;;7.57;3.20;;;;;;;3.37;73.47;103291.59;5037689;28;20057;-72
2021/04/16 05:56:12;;;;;;;5.20;3.08;;;;;;;3.51;72.59;103284.22;5039230;28;20120;-72
2021/04/16 05:58:39;;;;;;;6.53;3.50;;;;;;;3.74;71.62;103287.66;5035789;28;20853;-72
2021/04/16 06:01:07;;;;;;;6.68;3.58;;;;;;;3.80;71.18;103289.59;5037535;28;20064;-72
2021/04/16 06:03:34;;;;;;;6.55;3.50;;;;;;;4.11;70.83;103291.59;5039058;28;20330;-72
2021/04/16 06:06:01;;;;;;;5.97;3.40;;;;;;;4.28;69.56;103287.75;5041268;28;20060;-72
2021/04/16 06:08:28;;;;;;;9.80;3.30;;;;;;;4.53;69.74;103287.66;5038349;28;20460;-71
2021/04/16 06:10:56;;;;;;;9.75;3.90;;;;;;;4.68;68.56;103288.13;5040755;28;20064;-73
2021/04/16 06:13:23;;;;;;;7.95;3.05;;;;;;;4.77;67.78;103283.16;5036173;28;20060;-72
2021/04/16 06:15:51;;;;;;;6.75;3.20;;;;;;;4.90;68.13;103281.75;5040928;28;20243;-73
2021/04/16 06:18:19;;;;;;;5.75;3.15;;;;;;;5.23;67.61;103287.16;5040277;28;20057;-73
2021/04/16 06:20:46;;;;;;;9.05;3.67;;;;;;;5.45;65.95;103289.53;5035879;28;20061;-74
2021/04/16 06:23:13;;;;;;;8.38;3.47;;;;;;;5.68;65.52;103290.16;5038079;28;20423;-74
2021/04/16 06:25:40;;;;;;;7.95;3.92;;;;;;;5.47;64.76;103288.72;5035975;28;20053;-75
2021/04/16 06:28:08;;;;;;;5.68;3.47;;;;;;;5.96;65.37;103287.44;5039497;28;20363;-74
2021/04/16 06:30:35;;;;;;;5.38;3.08;;;;;;;6.21;63.96;103281.88;5039087;28;20053;-74
2021/04/16 06:33:06;;;;;;;7.40;3.15;;;;;;;6.34;63.52;103278.66;5039154;28;20064;-74
2021/04/16 06:35:36;;;;;;;7.93;3.33;;;;;;;6.61;63.62;103267.81;5037917;28;20075;-74
2021/04/16 06:38:03;;;;;;;6.95;3.45;;;;;;;6.86;62.17;103276.31;5039214;28;20080;-75
2021/04/16 06:40:31;;;;;;;6.50;3.53;;;;;;;6.57;62.21;103268.59;5033128;28;20549;-74
2021/04/16 06:42:59;;;;;;;6.95;3.30;;;;;;;6.81;62.10;103281.53;5040193;28;20589;-75
2021/04/16 06:45:28;;;;;;;5.68;2.95;;;;;;;6.96;60.85;103275.66;5033645;28;20335;-75
2021/04/16 06:47:58;;;;;;;6.20;3.00;;;;;;;7.12;60.24;103268.94;5037819;28;20069;-75
2021/04/16 06:50:29;;;;;;;6.90;3.15;;;;;;;7.40;60.95;103272.16;5051092;28;21141;-74
2021/04/16 06:53:04;;;;;;;9.65;3.35;;;;;;;7.31;59.56;103272.84;5037466;28;20305;-72
2021/04/16 06:55:35;;;;;;;6.43;3.20;;;;;;;7.43;59.47;103281.06;5036697;28;20053;-72
2021/04/16 06:58:06;;;;;;;5.53;2.78;;;;;;;7.61;58.93;103275.22;5039801;28;20687;-72
2021/04/16 07:00:41;;;;;;;8.82;2.78;;;;;;;7.69;58.47;103278.00;5037563;28;20068;-72
2021/04/16 07:03:18;;;;;;;5.28;2.63;;;;;;;7.82;58.90;103274.72;5038125;28;20053;-72
2021/04/16 07:05:49;;;;;;;5.28;2.95;;;;;;;7.94;57.83;103276.72;5037071;28;20068;-72
2021/04/16 07:08:26;;;;;;;4.82;2.67;;;;;;;7.89;57.51;103272.19;5036513;28;20060;-72
2021/04/16 07:10:56;;;;;;;5.55;3.45;;;;;;;7.77;57.35;103273.75;5037603;28;20072;-72
2021/04/16 07:13:35;;;;;;;7.07;2.67;;;;;;;7.75;57.97;103274.59;5037649;28;20053;-72
2021/04/16 07:16:03;;;;;;;5.32;2.70;;;;;;;8.39;56.55;103273.03;5041060;28;20402;-73
2021/04/16 07:18:36;;;;;;;6.50;3.38;;;;;;;8.49;56.50;103268.75;5036548;28;20292;-71
2021/04/16 07:21:05;;;;;;;6.63;2.80;;;;;;;8.17;57.13;103271.78;5039418;28;20131;-73
2021/04/16 07:23:42;;;;;;;5.78;2.88;;;;;;;7.91;58.21;103275.75;5034625;28;20064;-73
2021/04/16 07:26:36;;;;;;;5.55;2.80;;;;;;;8.54;56.97;103272.38;5038632;28;20130;-73
2021/04/16 07:29:04;;;;;;;5.50;2.88;;;;;;;8.56;56.17;103262.69;5037122;28;20053;-72
2021/04/16 07:31:47;;;;;;;7.00;3.05;;;;;;;9.21;55.62;103266.22;5042245;28;20144;-71
2021/04/16 07:34:19;;;;;;;4.93;2.75;;;;;;;9.27;54.33;103257.41;5038243;28;20428;-72
2021/04/16 07:36:46;;;;;;;5.95;2.45;;;;;;;9.31;54.24;103264.53;5042135;28;20126;-72
2021/04/16 07:39:31;;;;;;;6.95;3.10;;;;;;;8.78;55.69;103268.31;5039603;28;20057;-72
2021/04/16 07:42:24;;;;;;;6.63;2.80;;;;;;;8.85;55.94;103264.84;5038419;28;20059;-73
2021/04/16 07:45:06;;;;;;;5.55;2.90;;;;;;;9.21;55.66;103259.97;5038202;28;20057;-72
2021/04/16 07:47:34;;;;;;;6.13;2.60;;;;;;;9.47;54.43;103263.84;5041464;28;20075;-72
2021/04/16 07:50:08;;;;;;;9.77;3.03;;;;;;;9.10;55.24;103260.75;5036218;28;20148;-72
2021/04/16 07:52:38;;;;;;;6.57;3.05;;;;;;;9.34;55.44;103265.47;5040543;28;20065;-74
2021/04/16 07:55:22;;;;;;;4.57;2.67;;;;;;;9.76;54.48;103265.06;5039538;28;20072;-73
2021/04/16 07:58:06;;;;;;;5.93;2.95;;;;;;;9.72;53.79;103265.00;5043733;28;20333;-72
2021/04/16 08:00:35;;;;;;;;;;;;;;;10.18;53.02;103263.63;5040499;28;20060;-72
2021/04/16 08:03:09;;;;;;;6.85;3.08;;;;;;;10.19;52.57;103268.97;5043811;28;20008;-72
2021/04/16 08:05:39;;;;;;;8.60;3.33;;;;;;;9.41;53.82;103269.09;5036345;28;20474;-72
2021/04/16 08:08:09;;;;;;;7.13;3.35;;;;;;;9.83;54.33;103266.88;5041466;28;20538;-72
2021/04/16 08:10:38;;;;;;;6.50;3.70;;;;;;;9.98;53.65;103264.38;5037748;28;20057;-72
2021/04/16 08:13:08;;;;;;;8.75;4.00;;;;;;;9.76;53.57;103265.94;5041042;28;20057;-72
2021/04/16 08:15:36;;;;;;;11.02;4.00;;;;;;;9.81;53.06;103261.53;5041584;28;20148;-72
2021/04/16 08:18:13;;;;;;;8.38;4.15;;;;;;;9.83;52.97;103264.22;5041375;28;20160;-72
2021/04/16 08:20:52;;;;;;;8.95;4.40;;;;;;;10.14;51.10;103259.16;5038933;28;20071;-71
2021/04/16 08:23:19;;;;;;;11.27;5.22;;;;;;;9.95;50.56;103260.78;5041391;28;20068;-72
2021/04/16 08:25:52;;;;;;;10.25;4.88;;;;;;;9.96;50.75;103260.78;5036987;28;20053;-72
2021/04/16 08:28:25;;;;;;;10.93;4.68;;;;;;;10.18;50.49;103259.22;5041226;28;20519;-72
2021/04/16 08:30:59;;;;;;;11.70;5.95;;;;;;;10.23;50.28;103256.56;5039965;28;20060;-71
2021/04/16 08:33:32;;;;;;;13.13;6.60;;;;;;;9.91;50.43;103263.41;5041300;28;20071;-71
2021/04/16 08:36:07;;;;;;;14.00;6.38;;;;;;;10.48;50.36;103246.09;5039865;28;20065;-71
2021/04/16 08:38:39;;;;;;;16.33;8.13;;;;;;;10.35;48.43;103248.69;5037679;28;20057;-71
2021/04/16 08:41:12;;;;;;;14.18;8.43;;;;;;;10.87;48.53;103249.91;5039433;28;20506;-73
2021/04/16 08:43:41;;;;;;;15.98;6.72;;;;;;;11.64;47.65;103258.19;5040600;28;20053;-71
2021/04/16 08:46:22;;;;;;;12.40;6.10;;;;;;;11.99;45.63;103244.00;5038832;28;20083;-71
2021/04/16 08:48:54;;;;;;;12.82;6.32;;;;;;;11.97;46.20;103244.00;5037828;28;20152;-71
2021/04/16 08:51:26;;;;;;;14.93;6.82;;;;;;;12.11;44.17;103249.34;5036203;28;20061;-72
2021/04/16 08:54:04;;;;;;;12.50;7.05;;;;;;;12.25;44.44;103235.94;5040822;28;20475;-72
2021/04/16 08:56:36;;;;;;;12.27;6.03;;;;;;;11.99;40.76;103235.97;5040833;28;20060;-71
2021/04/16 08:59:10;;;;;;;10.73;5.35;;;;;;;11.54;42.50;103242.13;5039714;28;20364;-72
2021/04/16 09:01:45;;;;;;;11.00;5.63;;;;;;;11.47;43.84;103240.31;5041322;28;20063;-71
2021/04/16 09:04:18;;;;;;;10.88;5.53;;;;;;;11.92;43.59;103232.41;5038510;28;20057;-71
2021/04/16 09:06:52;;;;;;;13.45;6.32;;;;;;;12.24;43.11;103231.47;5041330;28;20079;-71
2021/04/16 09:09:39;;;;;;;11.00;5.28;;;;;;;12.15;42.85;103235.06;5036621;28;20072;-71
2021/04/16 09:12:08;;;;;;;10.73;5.15;;;;;;;12.17;43.55;103227.91;5036911;28;20056;-71
2021/04/16 09:14:55;;;;;;;9.30;4.75;;;;;;;12.24;41.81;103231.47;5036839;28;20057;-72
2021/04/16 09:18:06;;;;;;;11.18;5.35;;;;;;;12.13;43.50;103213.63;5038505;28;20118;-71
2021/04/16 09:21:07;;;;;;;10.13;4.78;;;;;;;12.38;43.26;103220.75;5039339;28;20065;-71
2021/04/16 09:24:03;;;;;;;11.32;5.22;;;;;;;12.91;42.61;103226.88;5037586;28;20072;-73
2021/04/16 09:26:57;;;;;;;12.15;5.43;;;;;;;13.15;40.31;103221.38;5039496;28;20093;-72
2021/04/16 09:29:44;;;;;;;10.82;4.93;;;;;;;12.81;39.39;103226.88;5037807;28;20527;-72
2021/04/16 09:32:47;;;;;;;11.32;5.20;;;;;;;12.71;38.62;103219.78;5040203;28;20053;-72
2021/04/16 09:35:45;;;;;;;8.63;4.25;;;;;;;13.08;38.33;103212.47;4976586;28;20157;-71
2021/04/16 09:38:30;;;;;;;11.35;4.82;;;;;;;13.07;37.80;103213.34;5040129;28;20060;-71
2021/04/16 09:41:09;;;;;;;9.32;4.45;;;;;;;13.55;37.39;103220.28;5038367;28;20207;-71
2021/04/16 09:43:38;;;;;;;10.35;5.18;;;;;;;12.80;38.11;103213.50;5039692;28;20084;-73
2021/04/16 09:46:53;;;;;;;12.00;5.63;;;;;;;12.79;39.69;103209.94;5039800;28;20056;-74
2021/04/16 09:49:34;;;;;;;11.00;5.20;;;;;;;12.51;38.78;103206.44;4979310;28;20066;-75
2021/04/16 09:52:51;;;;;;;7.95;4.00;;;;;;;13.35;37.91;103204.31;4979682;28;20217;-77
2021/04/16 09:56:09;;;;;;;9.48;4.68;;;;;;;12.76;37.26;103198.34;4882842;29;20066;-76
2021/04/16 09:59:04;;;;;;;6.82;2.90;;;;;;;13.72;34.06;103204.06;4960595;28;20632;-77
2021/04/16 10:01:32;;;;;;;8.10;3.20;;;;;;;14.23;33.25;103184.81;4967969;28;20054;-77
2021/04/16 10:04:01;;;;;;;8.15;3.85;;;;;;;14.32;34.25;103184.72;4978471;28;20093;-74
2021/04/16 10:06:42;;;;;;;8.98;3.63;;;;;;;14.40;32.82;103190.91;4977168;28;20062;-76
2021/04/16 10:09:23;;;;;;;5.78;3.05;;;;;;;13.54;33.00;103192.56;4977619;28;20072;-75
2021/04/16 10:11:52;;;;;;;6.00;2.75;;;;;;;13.44;33.40;103198.91;4977568;28;20073;-75
2021/04/16 10:14:25;;;;;;;6.47;3.60;;;;;;;13.10;32.99;103188.34;4979265;28;20141;-73
2021/04/16 10:16:56;;;;;;;9.68;3.30;;;;;;;13.38;33.61;103182.84;4978755;28;20058;-76
2021/04/16 10:19:26;;;;;;;7.13;2.80;;;;;;;14.27;34.31;103178.50;4986045;28;20056;-75
2021/04/16 10:21:54;;;;;;;8.43;3.90;;;;;;;14.34;32.75;103183.81;5037441;28;20060;-73
2021/04/16 12:38:36;;;;;;;9.10;3.85;;;;;;;12.17;47.23;103103.91;5035195;28;20064;-72
2021/04/16 12:41:07;;;;;;;9.63;3.40;;;;;;;12.38;46.71;103100.25;5042181;28;20067;-71
2021/04/16 12:43:36;;;;;;;11.40;3.75;;;;;;;12.40;46.27;103098.50;5040023;28;20610;-76
2021/04/16 12:46:04;;;;;;;7.50;3.47;;;;;;;12.36;46.48;103102.97;5041560;28;20140;-75
2021/04/16 12:48:31;;;;;;;7.57;3.50;;;;;;;11.92;43.04;103099.50;5038442;28;20071;-75
2021/04/16 12:50:58;;;;;;;6.03;3.30;;;;;;;12.46;42.59;103101.13;5039014;28;20065;-74
2021/04/16 12:53:25;;;;;;;8.05;3.38;;;;;;;12.77;42.78;103093.84;5038247;28;20072;-74
2021/04/16 12:55:53;;;;;;;6.50;2.60;;;;;;;13.27;37.65;103091.72;5042165;28;20056;-75
2021/04/16 12:58:25;;;;;;;5.35;2.60;;;;;;;13.11;34.42;103079.34;5035464;28;20168;-75
2021/04/16 13:00:52;;;;;;;6.03;2.50;;;;;;;13.50;33.71;103078.19;5039393;28;20068;-74
2021/04/16 13:03:22;;;;;;;4.75;2.58;;;;;;;13.78;31.94;103078.78;5038895;28;20319;-73
2021/04/16 13:05:50;;;;;;;4.75;2.20;;;;;;;13.72;32.25;103073.47;5038703;28;20308;-74
2021/04/16 13:08:18;;;;;;;5.03;2.53;;;;;;;13.46;30.46;103073.72;5041706;28;20056;-74
2021/04/16 13:10:45;;;;;;;5.55;2.30;;;;;;;14.05;30.12;103081.22;5035243;28;20448;-74
2021/04/16 13:13:14;;;;;;;4.53;2.30;;;;;;;14.22;29.77;103073.84;5040762;28;20065;-75
2021/04/16 13:15:41;;;;;;;4.65;2.00;;;;;;;13.94;28.45;103078.63;5040270;28;20482;-75
2021/04/16 13:18:14;;;;;;;4.35;2.17;;;;;;;13.64;27.88;103078.94;5041642;28;20459;-74
2021/04/16 13:20:46;;;;;;;4.05;2.17;;;;;;;14.31;28.74;103070.16;5041557;28;20061;-73
2021/04/16 13:23:13;;;;;;;5.28;2.30;;;;;;;14.24;27.33;103077.41;5037621;28;20056;-75
2021/04/16 13:25:40;;;;;;;5.10;2.08;;;;;;;14.44;27.85;103076.25;5040330;28;20061;-74
2021/04/16 13:28:07;;;;;;;3.60;2.08;;;;;;;14.31;28.27;103071.06;5037543;28;20144;-74
2021/04/16 13:30:35;;;;;;;5.70;2.20;;;;;;;13.59;29.13;103066.47;5037873;28;20086;-74
2021/04/16 13:33:07;;;;;;;6.88;2.33;;;;;;;14.11;29.64;103071.28;5054131;28;20397;-75
2021/04/16 13:35:36;;;;;;;3.80;2.10;;;;;;;14.06;29.74;103058.81;5038689;28;20072;-75
2021/04/16 13:38:06;;;;;;;4.43;2.55;;;;;;;13.80;28.80;103058.19;5040148;28;20340;-74
2021/04/16 13:40:33;;;;;;;4.00;2.50;;;;;;;13.57;28.79;103057.53;5035500;28;20379;-72
2021/04/16 13:43:02;;;;;;;3.92;2.10;;;;;;;13.77;29.20;103060.94;5039791;28;20057;-72
2021/04/16 13:45:29;;;;;;;6.18;3.08;;;;;;;13.27;29.38;103068.47;5036263;28;20091;-71
2021/04/16 13:47:58;;;;;;;4.97;2.88;;;;;;;13.30;31.25;103053.28;5040336;28;20060;-72
2021/04/16 13:50:25;;;;;;;6.30;2.92;;;;;;;13.71;30.92;103046.69;5039733;28;20107;-72
2021/04/16 13:52:52;;;;;;;6.38;2.67;;;;;;;13.99;29.75;103055.31;5035458;28;20068;-72
2021/04/16 13:55:19;;;;;;;4.40;2.65;;;;;;;14.19;29.38;103039.88;5040367;28;20068;-71
2021/04/16 13:57:46;;;;;;;4.57;2.50;;;;;;;14.32;29.22;103047.75;5036751;28;20068;-71
2021/04/16 14:00:20;;;;;;;5.05;2.72;;;;;;;14.35;29.39;103045.03;5040983;28;20057;-71